.
WxDataArchive / Data Records for 2010-04-16
2010-04-15 April 2010 2010-04-17

Data Records for Friday, 16 April 2010

Time	Temp	Chill	HIndex	Humid	Dewpt	 Wind 	HiWind	WindDir	Rain 	Barom 
-----	----	-----	------	-----	-----	------	------	-------	-----	----- 
00:00	70.3	70.3	70.3	42	46.1	1	3	248	0.00	30.081 
00:05	70.1	70.1	70.1	43	46.6	1	3	248	0.00	30.081 
00:10	70.1	70.1	70.1	43	46.6	2	5	248	0.00	30.081 
00:15	70.1	70.1	70.1	43	46.6	1	3	248	0.00	30.077 
00:20	70.1	70.1	70.1	43	46.6	1	4	248	0.00	30.077 
00:25	69.9	69.9	69.9	44	47.0	1	3	248	0.00	30.077 
00:30	69.8	69.8	69.8	44	46.9	1	3	248	0.00	30.076 
00:35	69.4	69.4	69.4	44	46.5	1	2	248	0.00	30.076 
00:40	69.4	69.4	69.4	44	46.5	1	3	270	0.00	30.076 
00:45	69.3	69.3	69.3	45	47.0	0	2	248	0.00	30.074 
00:50	69.1	69.1	69.1	46	47.4	0	2	248	0.00	30.074 
00:55	68.9	68.9	68.9	46	47.3	0	3	248	0.00	30.074 
01:00	68.8	68.8	68.8	46	47.2	1	2	248	0.00	30.071 
01:05	68.8	68.8	68.8	46	47.2	0	3	248	0.00	30.071 
01:10	68.6	68.6	68.6	46	47.0	1	3	248	0.00	30.071 
01:15	68.6	68.6	68.6	46	47.0	0	3	248	0.00	30.064 
01:20	68.6	68.6	68.6	46	47.0	0	2	270	0.00	30.064 
01:25	68.4	68.4	68.4	47	47.4	0	4	248	0.00	30.064 
01:30	68.3	68.3	68.3	47	47.3	1	2	248	0.00	30.061 
01:35	68.3	68.3	68.3	47	47.3	0	2	248	0.00	30.061 
01:40	68.1	68.1	68.1	47	47.1	1	3	248	0.00	30.061 
01:45	68.3	68.3	68.3	47	47.3	1	5	248	0.00	30.058 
01:50	68.3	68.3	68.3	47	47.3	0	2	248	0.00	30.058 
01:55	68.3	68.3	68.3	48	47.8	1	3	248	0.00	30.058 
02:00	68.3	68.3	68.3	47	47.3	1	3	248	0.00	30.053 
02:05	68.4	68.4	68.4	48	47.9	1	3	248	0.00	30.053 
02:10	68.4	68.4	68.4	47	47.4	1	4	248	0.00	30.053 
02:15	68.4	68.4	68.4	48	47.9	1	6	248	0.00	30.042 
02:20	68.6	68.6	68.6	47	47.6	1	4	248	0.00	30.042 
02:25	68.6	68.6	68.6	47	47.6	1	4	248	0.00	30.042 
02:30	68.8	68.8	68.8	47	47.7	3	7	248	0.00	30.039 
02:35	68.9	68.9	68.9	47	47.8	2	6	248	0.00	30.039 
02:40	68.9	68.9	68.9	47	47.8	2	5	248	0.00	30.039 
02:45	68.8	68.8	68.8	47	47.7	1	4	248	0.00	30.027 
02:50	68.6	68.6	68.6	48	48.1	1	4	248	0.00	30.027 
02:55	68.4	68.4	68.4	48	47.9	1	4	248	0.00	30.027 
03:00	68.4	68.4	68.4	48	47.9	2	5	248	0.00	30.022 
03:05	68.4	68.4	68.4	49	48.5	2	6	248	0.00	30.022 
03:10	68.4	68.4	68.4	49	48.5	1	4	248	0.00	30.022 
03:15	68.3	68.3	68.3	49	48.4	2	5	248	0.00	30.017 
03:20	68.3	68.3	68.3	49	48.4	1	5	248	0.00	30.017 
03:25	68.3	68.3	68.3	50	48.9	1	5	248	0.00	30.017 
03:30	68.3	68.3	68.3	50	48.9	1	5	248	0.00	30.013 
03:35	68.1	68.1	68.1	50	48.7	1	4	248	0.00	30.013 
03:40	67.9	67.9	67.9	50	48.6	1	3	248	0.00	30.013 
03:45	67.8	67.8	67.8	51	49.0	2	5	248	0.00	30.012 
03:50	67.6	67.6	67.6	51	48.8	1	4	248	0.00	30.012 
03:55	67.4	67.4	67.4	51	48.6	1	4	248	0.00	30.012 
04:00	67.3	67.3	67.3	52	49.1	2	7	225	0.00	30.012 
04:05	67.1	67.1	67.1	52	48.9	2	7	248	0.00	30.012 
04:10	67.1	67.1	67.1	53	49.4	1	5	248	0.00	30.012 
04:15	66.9	66.9	66.9	53	49.2	2	6	248	0.00	30.008 
04:20	66.8	66.8	66.8	53	49.1	1	6	248	0.00	30.008 
04:25	66.6	66.6	66.6	54	49.4	1	3	248	0.00	30.008 
04:30	66.4	66.4	66.4	54	49.2	1	4	248	0.00	30.003 
04:35	66.3	66.3	66.3	54	49.1	1	4	248	0.00	30.003 
04:40	66.3	66.3	66.3	55	49.6	1	4	248	0.00	30.003 
04:45	66.3	66.3	66.3	55	49.6	2	5	248	0.00	30.001 
04:50	66.3	66.3	66.3	55	49.6	1	3	248	0.00	30.001 
04:55	66.1	66.1	66.1	56	49.9	2	5	248	0.00	30.001 
05:00	66.1	66.1	66.1	56	49.9	1	3	248	0.00	29.996 
05:05	66.1	66.1	66.1	56	49.9	2	5	248	0.00	29.996 
05:10	66.1	66.1	66.1	56	49.9	2	5	248	0.00	29.996 
05:15	66.1	66.1	66.1	56	49.9	1	5	248	0.00	29.995 
05:20	66.0	66.0	66.0	57	50.3	2	4	270	0.00	29.995 
05:25	65.8	65.8	65.8	57	50.1	1	4	270	0.00	29.995 
05:30	65.8	65.8	65.8	57	50.1	2	6	248	0.00	29.985 
05:35	65.6	65.6	65.6	57	49.9	1	3	248	0.00	29.985 
05:40	65.5	65.5	65.5	58	50.3	1	3	248	0.00	29.985 
05:45	65.3	65.3	65.3	58	50.1	1	5	248	0.00	29.983 
05:50	65.2	65.2	65.2	58	50.0	1	5	225	0.00	29.983 
05:55	65.0	65.0	65.0	59	50.3	1	3	270	0.00	29.983 
06:00	64.8	64.8	64.8	59	50.1	1	3	248	0.00	29.986 
06:05	64.8	64.8	64.8	60	50.6	1	4	248	0.00	29.986 
06:10	64.7	64.7	64.7	60	50.5	2	5	270	0.00	29.986 
06:15	64.7	64.7	64.7	60	50.5	1	5	248	0.00	29.984 
06:20	64.5	64.5	64.5	60	50.3	2	5	248	0.00	29.984 
06:25	64.5	64.5	64.5	61	50.7	2	6	225	0.00	29.984 
06:30	64.3	64.3	64.3	61	50.6	2	5	292	0.00	29.977 
06:35	64.3	64.3	64.3	61	50.6	1	3	248	0.00	29.977 
06:40	64.3	64.3	64.3	61	50.6	3	6	248	0.00	29.977 
06:45	64.2	64.2	64.2	61	50.5	2	5	248	0.00	29.975 
06:50	64.2	64.2	64.2	62	50.9	2	5	248	0.00	29.975 
06:55	64.0	64.0	64.0	62	50.7	1	4	248	0.00	29.975 
07:00	64.0	64.0	64.0	62	50.7	2	5	270	0.00	29.976 
07:05	64.2	64.2	64.2	62	50.9	2	4	248	0.00	29.976 
07:10	64.2	64.2	64.2	62	50.9	3	5	248	0.00	29.976 
07:15	64.2	64.2	64.2	62	50.9	1	3	248	0.00	29.976 
07:20	64.2	64.2	64.2	62	50.9	2	4	270	0.00	29.976 
07:25	64.2	64.2	64.2	62	50.9	2	5	248	0.00	29.976 
07:30	64.2	64.2	64.2	63	51.3	1	3	270	0.00	29.982 
07:35	64.2	64.2	64.2	63	51.3	2	5	248	0.00	29.982 
07:40	64.0	64.0	64.0	63	51.1	2	4	248	0.00	29.982 
07:45	64.0	64.0	64.0	63	51.1	2	5	248	0.00	29.986 
07:50	63.9	63.9	63.9	64	51.5	1	4	248	0.00	29.986 
07:55	63.9	63.9	63.9	64	51.5	2	5	248	0.00	29.986 
08:00	63.9	63.9	63.9	64	51.5	2	5	248	0.00	29.986 
08:05	63.9	63.9	63.9	65	51.9	1	4	270	0.00	29.986 
08:10	63.7	63.7	63.7	65	51.7	1	4	248	0.00	29.986 
08:15	63.7	63.7	63.7	65	51.7	2	5	248	0.00	29.980 
08:20	63.7	63.7	63.7	65	51.7	2	4	248	0.00	29.980 
08:25	63.9	63.9	63.9	65	51.9	1	3	248	0.00	29.980 
08:30	64.0	64.0	64.0	65	52.0	1	3	248	0.00	29.975 
08:35	64.2	64.2	64.2	65	52.2	2	6	248	0.00	29.975 
08:40	64.5	64.5	64.5	64	52.0	2	5	248	0.00	29.975 
08:45	64.7	64.7	64.7	64	52.2	2	6	248	0.00	29.972 
08:50	65.0	65.0	65.0	64	52.5	2	5	248	0.00	29.972 
08:55	65.3	65.3	65.3	63	52.4	2	4	248	0.00	29.972 
09:00	65.8	65.8	65.8	64	53.3	1	5	248	0.00	29.958 
09:05	66.1	66.1	66.1	63	53.1	2	6	248	0.00	29.958 
09:10	66.0	66.0	66.0	63	53.0	2	4	248	0.00	29.958 
09:15	65.8	65.8	65.8	63	52.8	2	6	248	0.00	29.957 
09:20	65.8	65.8	65.8	64	53.3	2	5	248	0.00	29.957 
09:25	66.1	66.1	66.1	65	54.0	1	4	270	0.00	29.957 
09:30	66.6	66.6	66.6	64	54.0	3	6	248	0.00	29.956 
09:35	66.4	66.4	66.4	64	53.8	2	5	270	0.00	29.956 
09:40	66.0	66.0	66.0	64	53.5	2	4	270	0.00	29.956 
09:45	65.6	65.6	65.6	65	53.5	2	5	248	0.00	29.954 
09:50	65.3	65.3	65.3	67	54.1	1	3	248	0.00	29.954 
09:55	65.0	65.0	65.0	68	54.2	2	4	292	0.00	29.954 
10:00	64.8	64.8	64.8	68	54.0	2	4	248	0.00	29.947 
10:05	64.7	64.7	64.7	69	54.3	2	4	270	0.00	29.947 
10:10	64.5	64.5	64.5	70	54.5	1	3	248	0.00	29.947 
10:15	64.5	64.5	64.5	69	54.1	2	5	248	0.00	29.948 
10:20	64.5	64.5	64.5	70	54.5	2	4	248	0.00	29.948 
10:25	64.5	64.5	64.5	70	54.5	2	4	270	0.00	29.948 
10:30	64.7	64.7	64.7	69	54.3	2	5	270	0.00	29.958 
10:35	64.5	64.5	64.5	70	54.5	2	4	338	0.00	29.958 
10:40	64.5	64.5	64.5	71	54.9	2	5	248	0.00	29.958 
10:45	64.5	64.5	64.5	71	54.9	2	6	292	0.00	29.951 
10:50	64.3	64.3	64.3	72	55.1	3	6	270	0.00	29.951 
10:55	64.3	64.3	64.3	73	55.5	3	6	270	0.00	29.951 
11:00	64.0	64.0	64.0	74	55.5	4	10	270	0.00	29.960 
11:05	63.9	63.9	63.9	75	55.8	4	7	270	0.00	29.960 
11:10	63.9	63.9	63.9	76	56.2	3	6	248	0.00	29.960 
11:15	63.9	63.9	63.9	76	56.2	4	7	270	0.00	29.961 
11:20	63.9	63.9	63.9	76	56.2	3	6	270	0.00	29.961 
11:25	63.7	63.7	63.7	77	56.3	3	5	270	0.00	29.961 
11:30	63.5	63.5	63.5	78	56.5	2	5	270	0.00	29.963 
11:35	63.1	63.1	63.1	82	57.5	2	4	248	0.01	29.963 
11:40	62.3	62.3	62.3	84	57.4	2	5	270	0.01	29.963 
11:45	61.6	61.6	61.6	87	57.7	2	5	270	0.00	29.962 
11:50	61.2	61.2	61.2	88	57.6	2	5	248	0.01	29.962 
11:55	61.0	61.0	61.0	89	57.7	1	3	292	0.01	29.962 
12:00	60.9	60.9	60.9	90	57.9	2	5	225	0.00	29.965 
12:05	60.7	60.7	60.7	91	58.1	2	4	270	0.00	29.965 
12:10	60.5	60.5	60.5	91	57.9	2	4	270	0.01	29.965 
12:15	60.2	60.2	60.2	91	57.6	1	4	292	0.00	29.959 
12:20	60.2	60.2	60.2	92	57.9	1	3	292	0.00	29.959 
12:25	60.4	60.4	60.4	92	58.1	1	4	292	0.00	29.959 
12:30	59.8	59.8	59.8	91	57.2	2	4	338	0.01	29.962 
12:35	59.6	59.6	59.6	91	57.0	1	3	315	0.00	29.962 
12:40	59.2	59.2	59.2	90	56.3	1	4	338	0.00	29.962 
12:45	59.2	59.2	59.2	90	56.3	1	4	248	0.00	29.949 
12:50	59.5	59.5	59.5	90	56.6	0	3	338	0.00	29.949 
12:55	59.5	59.5	59.5	91	56.9	1	3	338	0.01	29.949 
13:00	59.2	59.2	59.2	91	56.6	1	3	270	0.01	29.958 
13:05	58.9	58.9	58.9	91	56.3	2	4	248	0.01	29.958 
13:10	58.3	58.3	58.3	91	55.7	3	6	292	0.02	29.958 
13:15	57.6	57.6	57.6	91	55.0	2	4	315	0.01	29.962 
13:20	57.5	57.5	57.5	92	55.2	2	5	292	0.01	29.962 
13:25	57.5	57.5	57.5	92	55.2	2	5	292	0.00	29.962 
13:30	57.3	57.3	57.3	92	55.0	2	4	338	0.01	29.968 
13:35	57.2	57.2	57.2	92	54.9	3	6	270	0.00	29.968 
13:40	57.2	57.2	57.2	93	55.2	3	5	270	0.00	29.968 
13:45	56.9	56.9	56.9	92	54.6	4	7	270	0.00	29.968 
13:50	56.6	56.6	56.6	92	54.3	4	8	270	0.00	29.968 
13:55	56.6	56.6	56.6	92	54.3	3	6	270	0.01	29.968 
14:00	56.7	56.7	56.7	92	54.4	3	5	270	0.00	29.964 
14:05	56.5	56.5	56.5	91	53.9	3	5	270	0.00	29.964 
14:10	56.6	56.6	56.6	91	54.0	3	5	292	0.00	29.964 
14:15	56.5	56.5	56.5	91	53.9	3	6	270	0.00	29.955 
14:20	56.3	56.3	56.3	91	53.7	3	5	248	0.00	29.955 
14:25	56.0	56.0	56.0	90	53.1	3	6	338	0.00	29.955 
14:30	56.2	56.2	56.2	88	52.7	3	6	270	0.00	29.956 
14:35	56.3	56.3	56.3	87	52.5	2	5	338	0.00	29.956 
14:40	56.9	56.9	56.9	86	52.8	2	5	315	0.00	29.956 
14:45	57.6	57.6	57.6	85	53.1	2	4	292	0.00	29.956 
14:50	58.1	58.1	58.1	77	50.9	5	10	270	0.00	29.956 
14:55	58.1	58.1	58.1	73	49.5	4	7	270	0.00	29.956 
15:00	58.3	58.3	58.3	73	49.7	3	6	270	0.00	29.955 
15:05	58.7	58.7	58.7	73	50.1	3	7	270	0.00	29.955 
15:10	59.0	59.0	59.0	70	49.2	3	7	270	0.00	29.955 
15:15	59.6	59.6	59.6	69	49.4	3	5	292	0.00	29.946 
15:20	60.5	60.5	60.5	69	50.3	3	5	270	0.00	29.946 
15:25	60.5	60.5	60.5	65	48.7	3	9	270	0.00	29.946 
15:30	59.9	59.9	59.9	64	47.7	3	9	315	0.00	29.948 
15:35	59.8	59.8	59.8	64	47.6	4	10	292	0.00	29.948 
15:40	59.6	59.6	59.6	63	47.0	4	7	270	0.00	29.948 
15:45	59.8	59.8	59.8	64	47.6	3	6	270	0.00	29.949 
15:50	60.2	60.2	60.2	62	47.1	4	6	270	0.00	29.949 
15:55	60.4	60.4	60.4	64	48.2	3	6	270	0.00	29.949 
16:00	60.1	60.1	60.1	59	45.7	4	10	270	0.00	29.938 
16:05	60.2	60.2	60.2	58	45.4	3	7	270	0.00	29.938 
16:10	60.5	60.5	60.5	54	43.8	3	7	315	0.00	29.938 
16:15	60.7	60.7	60.7	53	43.5	3	6	270	0.00	29.936 
16:20	61.2	61.2	61.2	52	43.4	3	7	270	0.00	29.936 
16:25	61.5	61.5	61.5	51	43.2	3	5	270	0.00	29.936 
16:30	61.8	61.8	61.8	52	44.0	3	5	270	0.00	29.923 
16:35	61.8	61.8	61.8	50	43.0	3	6	270	0.00	29.923 
16:40	61.8	61.8	61.8	50	43.0	4	9	270	0.00	29.923 
16:45	61.3	61.3	61.3	49	42.0	5	11	315	0.00	29.928 
16:50	61.2	61.2	61.2	50	42.4	4	10	270	0.00	29.928 
16:55	61.3	61.3	61.3	49	42.0	4	9	270	0.00	29.928 
17:00	61.3	61.3	61.3	49	42.0	4	9	315	0.00	29.929 
17:05	62.0	62.0	62.0	48	42.1	4	11	270	0.00	29.929 
17:10	62.3	62.3	62.3	47	41.8	5	11	270	0.00	29.929 
17:15	62.3	62.3	62.3	48	42.4	6	12	292	0.00	29.929 
17:20	62.1	62.1	62.1	48	42.2	4	12	292	0.00	29.929 
17:25	62.0	62.0	62.0	47	41.5	4	9	292	0.00	29.929 
17:30	62.0	62.0	62.0	48	42.1	4	7	292	0.00	29.926 
17:35	62.3	62.3	62.3	46	41.3	4	7	315	0.00	29.926 
17:40	62.1	62.1	62.1	46	41.1	5	11	270	0.00	29.926 
17:45	62.0	62.0	62.0	45	40.4	5	11	315	0.00	29.934 
17:50	62.0	62.0	62.0	45	40.4	4	10	338	0.00	29.934 
17:55	62.0	62.0	62.0	45	40.4	3	7	315	0.00	29.934 
18:00	61.8	61.8	61.8	46	40.8	3	11	338	0.00	29.934 
18:05	61.6	61.6	61.6	46	40.6	3	6	315	0.00	29.934 
18:10	61.5	61.5	61.5	46	40.5	5	11	292	0.00	29.934 
18:15	61.3	61.3	61.3	46	40.3	4	7	315	0.00	29.938 
18:20	61.5	61.5	61.5	47	41.1	3	7	315	0.00	29.938 
18:25	61.3	61.3	61.3	48	41.4	3	9	292	0.00	29.938 
18:30	61.3	61.3	61.3	48	41.4	2	5	315	0.00	29.938 
18:35	61.0	61.0	61.0	49	41.7	3	6	292	0.00	29.938 
18:40	60.5	60.5	60.5	50	41.8	3	6	338	0.00	29.938 
18:45	59.9	59.9	59.9	51	41.7	4	11	292	0.00	29.945 
18:50	59.6	59.6	59.6	52	42.0	3	10	292	0.00	29.945 
18:55	58.9	58.9	58.9	53	41.8	4	10	315	0.00	29.945 
19:00	58.4	58.4	58.4	54	41.8	3	7	315	0.00	29.954 
19:05	58.0	58.0	58.0	54	41.4	3	6	315	0.00	29.954 
19:10	57.6	57.6	57.6	54	41.1	3	7	270	0.00	29.954 
19:15	57.5	57.5	57.5	55	41.5	3	9	270	0.00	29.955 
19:20	57.2	57.2	57.2	55	41.2	4	10	315	0.00	29.955 
19:25	57.0	57.0	57.0	55	41.0	3	5	338	0.00	29.955 
19:30	56.7	56.7	56.7	52	39.3	3	7	315	0.00	29.961 
19:35	56.6	56.6	56.6	53	39.7	3	10	270	0.00	29.961 
19:40	56.3	56.3	56.3	51	38.4	3	7	338	0.00	29.961 
19:45	56.0	56.0	56.0	50	37.6	3	10	292	0.00	29.959 
19:50	55.9	55.9	55.9	50	37.5	2	6	315	0.00	29.959 
19:55	55.7	55.7	55.7	50	37.3	2	5	292	0.00	29.959 
20:00	55.6	55.6	55.6	51	37.8	2	6	292	0.00	29.962 
20:05	55.4	55.4	55.4	52	38.1	1	5	338	0.00	29.962 
20:10	55.3	55.3	55.3	52	38.0	2	5	292	0.00	29.962 
20:15	55.3	55.3	55.3	51	37.5	3	7	292	0.00	29.971 
20:20	55.3	55.3	55.3	51	37.5	3	10	292	0.00	29.971 
20:25	55.1	55.1	55.1	52	37.8	2	4	292	0.00	29.971 
20:30	55.0	55.0	55.0	52	37.7	2	7	315	0.00	29.975 
20:35	54.8	54.8	54.8	52	37.5	2	5	315	0.00	29.975 
20:40	54.5	54.5	54.5	53	37.7	2	7	270	0.00	29.975 
20:45	54.4	54.4	54.4	53	37.6	3	6	315	0.00	29.984 
20:50	54.2	54.2	54.2	53	37.4	2	6	315	0.00	29.984 
20:55	53.9	53.9	53.9	54	37.6	2	4	338	0.00	29.984 
21:00	53.6	53.6	53.6	53	36.9	2	7	338	0.00	29.990 
21:05	53.3	53.3	53.3	53	36.6	1	4	270	0.00	29.990 
21:10	52.9	52.9	52.9	52	35.8	2	6	292	0.00	29.990 
21:15	52.8	52.8	52.8	53	36.1	1	6	315	0.00	29.998 
21:20	52.5	52.5	52.5	53	35.9	1	4	270	0.00	29.998 
21:25	52.2	52.2	52.2	54	36.1	1	3	270	0.00	29.998 
21:30	51.9	51.9	51.9	54	35.8	0	2	292	0.00	30.007 
21:35	51.7	51.7	51.7	55	36.1	0	2	292	0.00	30.007 
21:40	51.6	51.6	51.6	54	35.5	1	5	292	0.00	30.007 
21:45	51.6	51.6	51.6	54	35.5	1	3	292	0.00	30.010 
21:50	51.6	51.6	51.6	54	35.5	0	3	292	0.00	30.010 
21:55	51.3	51.3	51.3	54	35.2	0	3	292	0.00	30.010 
22:00	51.1	51.1	51.1	55	35.5	0	2	292	0.00	30.012 
22:05	51.0	51.0	51.0	55	35.4	1	2	225	0.00	30.012 
22:10	50.8	50.8	50.8	55	35.2	0	2	0	0.00	30.012 
22:15	50.5	50.5	50.5	55	34.9	0	3	270	0.00	30.018 
22:20	50.4	50.4	50.4	55	34.8	0	2	270	0.00	30.018 
22:25	50.2	50.2	50.2	55	34.7	0	2	315	0.00	30.018 
22:30	50.1	50.1	50.1	56	35.0	0	2	315	0.00	30.025 
22:35	49.9	49.9	49.9	56	34.8	0	2	315	0.00	30.025 
22:40	49.8	49.8	49.8	56	34.7	0	1	315	0.00	30.025 
22:45	49.6	49.6	49.6	57	35.0	0	1	315	0.00	30.025 
22:50	49.5	49.5	49.5	57	34.9	0	1	315	0.00	30.025 
22:55	49.2	49.2	49.2	58	35.1	0	1	315	0.00	30.025 
23:00	48.9	48.9	48.9	58	34.8	0	1	315	0.00	30.026 
23:05	48.8	48.8	48.8	59	35.1	0	1	315	0.00	30.026 
23:10	48.5	48.5	48.5	60	35.3	0	1	315	0.00	30.026 
23:15	48.3	48.3	48.3	60	35.1	0	1	315	0.00	30.031 
23:20	48.2	48.2	48.2	60	35.0	0	1	315	0.00	30.031 
23:25	48.2	48.2	48.2	60	35.0	0	1	315	0.00	30.031 
23:30	48.0	48.0	48.0	60	34.8	0	1	315	0.00	30.031 
23:35	47.7	47.7	47.7	61	34.9	0	1	315	0.00	30.031 
23:40	47.6	47.6	47.6	61	34.8	0	1	315	0.00	30.031 
23:45	47.4	47.4	47.4	61	34.6	0	1	315	0.00	30.035 
23:50	47.3	47.3	47.3	62	34.9	0	1	315	0.00	30.035 
23:55	47.0	47.0	47.0	62	34.7	0	1	315	0.00	30.035 

CoCoRaHS
IN-AL-39
A2 Web Hosting
Creative Commons License
GoDaddy
search engine by freefind advanced

loaded 2018-11-13 23:24:04 • last modified 2010-11-18 10:43:29
Privacy PolicyDisclaimer
• wx.awcolley.com is powered by PmWiki v.2002016 •
• all content (unless otherwise noted) © 2018 A W Colley